Weather at Flying Cloud Airport

Public forecast

Using degrees Fahrenheit for public forecast. Weather courtesy of forecast.io.

Current aviation weather report (METAR) for Flying Cloud Airport

2024/07/24 15:53 (retrieved 31 minutes ago)

KFCM 241553Z 05009KT 10SM CLR 23/16 A3018 RMK AO2 SLP216 T02280156

Closest aviation forecast (TAF) to Flying Cloud Airport

Closest forecast is Minneapolis–Saint Paul International Airport / Wold–Chamberlain Field, 10.5 nm (19.5 km) ENE.

2024/07/24 15:54 Ammendment (retrieved 30 minutes ago)

TAF AMD KMSP 241452Z 2415/2518 09006KT P6SM SCT040 SCT200 FM250200 11004KT P6SM SCT200